Latest Weather Observations for Macquarie Island

IDT60801

Issued at 1:02 pm EDT Thursday 19 January 2017 (issued every 30 minutes, with the page automatically refreshed every 10 minutes)

About weather observations | Map of weather stations | Latest weather observations for TAS | Other Formats
Station Details ID: 300004 Name: MACQUARIE ISLAND Lat: -54.50 Lon: 158.94 Height: 6.0 m
Data from the previous 72 hours. | See also: Recent months at Macquarie Island
Date/Time
EDT
Temp
°C
App
Temp
°C
Dew
Point
°C
Rel
Hum
%
Delta-T
°C
Wind Press
QNH
hPa
Press
MSL
hPa
Rain since
9am
mm
Dir  Spd
km/h
Gust
km/h
Spd
kts
Gust
kts
19/01:00pm 6.5 1.3 -0.2 62 2.6 WSW 17 26 9 14 999.5 - 0.0
19/12:30pm 6.8 1.1 -0.4 60 2.8 W 19 28 10 15 999.4 - 0.0
19/12:00pm 6.9 1.3 1.0 66 2.4 WSW 20 37 11 20 999.3 999.6 0.0
19/11:30am 5.9 -1.6 0.9 70 2.0 W 30 44 16 24 999.5 - 0.0
19/11:10am 5.8 -2.3 1.0 71 1.9 W 33 54 18 29 999.4 - 0.0
19/11:00am 6.1 -1.7 1.4 72 1.9 W 32 44 17 24 999.5 - 0.0
19/10:56am 6.1 -2.0 1.1 70 2.0 W 33 44 18 24 999.4 - 0.0
19/10:30am 6.9 2.5 0.4 63 2.5 WSW 13 20 7 11 999.5 - 0.0
19/10:00am 5.8 -0.2 1.2 72 1.8 W 22 35 12 19 999.4 - 0.0
19/09:30am 5.6 1.1 0.0 67 2.1 WSW 13 22 7 12 999.3 - 0.0
19/09:00am 5.4 -1.1 0.0 68 2.1 WSW 24 44 13 24 999.3 999.6 0.0
19/08:30am 5.4 -0.2 0.2 69 2.0 S 19 32 10 17 999.1 - 0.0
19/08:00am 5.3 -1.8 -0.9 64 2.3 SW 26 39 14 21 998.7 - 0.0
19/07:30am 5.2 -0.6 0.0 69 2.0 S 20 35 11 19 998.5 - 0.0
19/07:00am 5.2 -0.9 0.4 71 1.8 S 22 30 12 16 998.3 - 0.0
19/06:30am 5.0 -1.1 0.4 72 1.8 S 22 32 12 17 998.2 - 0.0
19/06:00am 5.0 -0.4 1.1 76 1.5 S 19 30 10 16 997.8 998.1 0.0
19/05:30am 4.0 -0.8 0.5 78 1.3 SSW 15 24 8 13 997.6 - 0.0
19/05:00am 4.6 -1.5 0.6 75 1.5 SSW 22 35 12 19 997.4 - 0.0
19/04:30am 4.8 -0.1 -0.4 69 2.0 SSW 15 26 8 14 997.1 - 0.0
19/04:00am 4.5 -0.6 0.5 75 1.5 SSW 17 20 9 11 996.8 - 0.0
19/03:30am 4.4 -1.2 0.2 74 1.6 S 19 24 10 13 996.6 - 0.0
19/03:00am 3.7 -0.9 -1.3 70 1.8 SSW 13 17 7 9 996.3 996.6 0.0
19/02:30am 4.1 -0.4 -0.1 74 1.6 SSW 13 20 7 11 996.0 - 0.0
19/02:00am 3.6 -0.9 -0.4 75 1.5 SSW 13 19 7 10 995.8 - 0.0
19/01:30am 3.8 -0.8 -1.4 69 1.9 SSW 13 22 7 12 995.5 - 0.0
19/01:00am 4.1 -0.9 -0.9 70 1.8 SSW 15 24 8 13 995.4 - 0.0
19/12:30am 4.6 -1.2 -0.2 71 1.8 S 20 28 11 15 995.2 - 0.0
19/12:00am 4.8 -0.8 0.9 76 1.5 S 20 28 11 15 995.0 995.3 0.0
 
Date/Time
EDT
Temp
°C
App
Temp
°C
Dew
Point
°C
Rel
Hum
%
Delta-T
°C
Wind Press
QNH
hPa
Press
MSL
hPa
Rain since
9am
mm
Dir  Spd
km/h
Gust
km/h
Spd
kts
Gust
kts
18/11:30pm 5.0 0.0 1.1 76 1.5 S 17 22 9 12 994.8 - 0.0
18/11:00pm 5.3 -0.2 1.8 78 1.4 S 20 28 11 15 994.5 - 0.0
18/10:30pm 5.3 -1.4 1.6 77 1.5 SSE 26 32 14 17 994.4 - 0.0
18/10:00pm 5.4 -1.0 1.1 74 1.7 SSE 24 28 13 15 994.0 - 0.0
18/09:30pm 5.5 -1.6 1.2 74 1.7 SSE 28 35 15 19 993.8 - 0.0
18/09:00pm 5.5 -1.6 1.4 75 1.6 SSE 28 33 15 18 993.4 993.7 0.0
18/08:30pm 5.7 -1.3 2.0 77 1.5 SSE 28 33 15 18 992.9 - 0.0
18/08:00pm 6.0 -1.3 2.3 77 1.5 SSE 30 35 16 19 992.6 - 0.0
18/07:30pm 6.4 -0.1 2.5 76 1.6 SE 26 32 14 17 992.2 - 0.0
18/07:00pm 6.8 1.1 2.9 76 1.6 SE 22 28 12 15 992.0 - 0.0
18/06:30pm 6.9 1.3 3.2 77 1.6 SE 22 28 12 15 991.7 - 0.0
18/06:00pm 6.8 1.2 3.4 79 1.5 SE 22 26 12 14 991.5 991.8 0.0
18/05:30pm 6.9 - 3.3 78 1.5 - - - - - 991.2 - 0.0
18/05:00pm 7.2 - 3.6 78 1.5 - - - - - 990.8 - 0.0
18/04:30pm 7.0 - 2.3 72 1.9 - - - - - 990.6 - 0.0
18/04:00pm 7.3 - 2.6 72 2.0 - - - - - 990.5 - 0.0
18/03:30pm 7.5 - 3.0 73 1.9 - - - - - 990.4 - 0.0
18/03:00pm 7.5 5.3 3.4 75 1.8 SE 4 - 2 - 990.3 990.6 0.0
18/02:30pm 7.7 - 3.2 73 1.9 - - - - - 990.3 - 0.0
18/02:00pm 7.6 - 2.5 70 2.1 - - - - - 990.3 - 0.0
18/01:30pm 7.9 6.4 3.0 71 2.1 CALM 0 0 0 0 990.3 - 0.0
18/01:00pm 7.5 5.9 2.4 70 2.1 CALM 0 0 0 0 990.3 - 0.0
18/12:30pm 7.5 5.1 2.2 69 2.2 NNW 4 7 2 4 990.3 - 0.0
18/12:00pm 7.8 5.9 3.1 72 2.0 WNW 2 9 1 5 990.3 990.6 0.0
18/11:30am 7.2 4.2 2.3 71 2.0 NW 7 9 4 5 990.3 - 0.0
18/11:00am 7.6 4.7 2.7 71 2.0 NW 7 9 4 5 990.4 - 0.0
18/10:30am 7.4 4.6 3.1 74 1.8 NNW 7 9 4 5 990.5 - 0.0
18/10:00am 7.0 4.1 1.5 68 2.2 N 6 9 3 5 990.4 - 0.0
18/09:30am 8.7 5.5 3.3 69 2.3 E 9 15 5 8 990.5 - 0.0
18/09:00am 8.1 5.4 3.6 73 2.0 SE 7 9 4 5 990.5 990.8 0.2
18/08:30am 6.9 4.0 2.6 74 1.8 SSE 7 9 4 5 990.5 - 0.2
18/08:00am 7.5 4.2 2.6 71 2.0 W 9 15 5 8 990.3 - 0.2
18/07:30am 5.9 1.0 2.2 77 1.5 W 17 22 9 12 990.2 - 0.2
18/07:00am 6.3 1.0 2.0 74 1.7 W 19 22 10 12 990.2 - 0.2
18/06:30am 5.5 1.8 2.2 79 1.3 W 11 13 6 7 990.3 - 0.2
18/06:00am 4.6 0.8 1.6 81 1.2 WSW 11 11 6 6 990.3 990.6 0.2
18/05:30am 4.2 0.3 1.2 81 1.2 WSW 11 11 6 6 990.3 - 0.2
18/05:00am 4.7 0.8 1.4 79 1.3 W 11 17 6 9 990.3 - 0.2
18/04:30am 4.9 -0.6 1.7 80 1.3 W 20 24 11 13 990.3 - 0.2
18/04:18am 4.6 -2.5 1.6 81 1.2 W 28 32 15 17 990.4 - 0.2
18/04:00am 4.2 0.8 2.1 86 0.8 WSW 9 11 5 6 990.5 - 0.2
18/03:30am 4.6 1.7 2.5 86 0.8 W 7 11 4 6 990.6 - 0.2
18/03:00am 4.8 2.1 2.7 86 0.9 W 6 7 3 4 990.7 991.0 0.2
18/02:30am 4.8 1.9 2.5 85 0.9 W 7 9 4 5 990.8 - 0.2
18/02:00am 4.9 2.1 2.3 83 1.0 W 6 7 3 4 990.8 - 0.2
18/01:30am 5.1 1.8 2.6 84 1.0 WNW 9 9 5 5 991.0 - 0.2
18/01:00am 5.0 2.0 2.0 81 1.2 WSW 7 9 4 5 991.0 - 0.2
18/12:30am 4.9 1.9 2.1 82 1.1 WSW 7 11 4 6 991.2 - 0.2
18/12:00am 5.1 2.4 2.5 83 1.1 W 6 7 3 4 991.3 991.6 0.2
 
Date/Time
EDT
Temp
°C
App
Temp
°C
Dew
Point
°C
Rel
Hum
%
Delta-T
°C
Wind Press
QNH
hPa
Press
MSL
hPa
Rain since
9am
mm
Dir  Spd
km/h
Gust
km/h
Spd
kts
Gust
kts
17/11:30pm 5.1 3.5 2.5 83 1.1 CALM 0 2 0 1 991.3 - 0.2
17/11:00pm 5.1 2.2 2.5 83 1.1 SSW 7 9 4 5 991.1 - 0.2
17/10:30pm 5.1 3.1 2.3 82 1.1 SSE 2 9 1 5 991.1 - 0.2
17/10:00pm 5.1 3.5 2.3 82 1.1 CALM 0 0 0 0 991.1 - 0.2
17/09:30pm 5.0 3.4 2.2 82 1.1 CALM 0 0 0 0 991.1 - 0.2
17/09:00pm 5.2 3.5 2.0 80 1.3 CALM 0 0 0 0 990.9 991.2 0.2
17/08:30pm 5.8 3.9 2.8 81 1.2 SE 2 6 1 3 990.6 - 0.2
17/08:00pm 5.9 3.2 2.7 80 1.3 SE 6 6 3 3 990.4 - 0.2
17/07:30pm 6.1 3.4 2.9 80 1.3 ESE 6 7 3 4 990.1 - 0.2
17/07:00pm 6.2 3.6 3.0 80 1.3 E 6 7 3 4 989.9 - 0.2
17/06:30pm 6.4 4.9 3.0 79 1.4 CALM 0 6 0 3 989.8 - 0.2
17/06:00pm 6.3 4.8 2.9 79 1.4 CALM 0 0 0 0 989.6 989.9 0.2
17/05:30pm 6.1 3.8 2.6 78 1.4 ENE 4 7 2 4 989.4 - 0.2
17/05:00pm 6.7 3.9 3.3 79 1.4 ESE 7 9 4 5 989.2 - 0.2
17/04:30pm 6.3 3.5 3.3 81 1.3 SE 7 11 4 6 989.1 - 0.2
17/04:00pm 6.0 2.8 3.2 82 1.2 SSE 9 11 5 6 989.0 - 0.2
17/03:30pm 6.0 2.8 3.2 82 1.2 SSE 9 13 5 7 988.8 - 0.2
17/03:00pm 6.3 2.8 3.6 83 1.2 SE 11 15 6 8 988.7 989.0 0.0
17/02:30pm 6.2 2.6 3.2 81 1.3 SE 11 13 6 7 988.7 - 0.0
17/02:00pm 6.1 2.6 3.3 82 1.2 SE 11 15 6 8 988.5 - 0.0
17/01:30pm 6.1 2.2 3.3 82 1.2 SSE 13 17 7 9 988.2 - 0.0
17/01:00pm 6.4 3.3 3.7 83 1.1 SE 9 13 5 7 988.0 - 0.0
17/12:30pm 6.3 3.2 3.6 83 1.1 ESE 9 13 5 7 987.8 - 0.0
17/12:00pm 6.4 3.0 4.1 85 1.0 SE 11 17 6 9 987.7 988.0 0.0
17/11:30am 6.2 2.8 3.9 85 1.0 ESE 11 13 6 7 987.6 - 0.0
17/11:00am 6.0 2.6 4.2 88 0.8 SSE 11 15 6 8 987.6 - 0.0
17/10:30am 6.0 2.7 4.3 89 0.7 SSE 11 13 6 7 987.6 - 0.0
17/10:00am 5.6 2.6 3.9 89 0.7 SSE 9 13 5 7 987.6 - 0.0
17/09:30am 5.8 2.4 4.0 88 0.8 SSE 11 13 6 7 987.6 - 0.0
17/09:00am 6.1 3.1 4.1 87 0.9 SE 9 13 5 7 987.5 987.8 0.8
17/08:30am 6.0 2.6 4.0 87 0.8 SE 11 13 6 7 987.4 - 0.8
17/08:00am 5.8 2.4 4.0 88 0.8 SE 11 13 6 7 987.4 - 0.8
17/07:30am 5.6 1.8 3.8 88 0.8 SE 13 17 7 9 987.2 - 0.8
17/07:00am 5.5 2.1 4.0 90 0.6 SE 11 15 6 8 987.1 - 0.8
17/06:30am 5.4 2.0 4.2 92 0.5 SSE 11 13 6 7 987.0 - 0.8
17/06:00am 5.4 2.0 4.2 92 0.5 SSE 11 11 6 6 987.0 987.3 0.8
17/05:30am 5.5 1.8 4.2 91 0.6 SSE 13 13 7 7 987.1 - 0.8
17/05:00am 5.5 2.9 4.0 90 0.6 SE 7 11 4 6 987.1 - 0.8
17/04:30am 5.4 2.4 3.9 90 0.6 SSE 9 9 5 5 987.2 - 0.8
17/04:00am 5.4 2.0 4.1 91 0.6 SSE 11 13 6 7 987.0 - 0.8
17/03:30am 5.4 2.0 4.1 91 0.6 SE 11 13 6 7 987.1 - 0.8
17/03:00am 5.5 2.9 4.2 91 0.6 SE 7 9 4 5 987.3 987.6 0.8
17/02:30am 5.3 2.8 3.8 90 0.6 WNW 6 7 3 4 987.5 - 0.8
17/02:00am 5.3 2.6 3.6 89 0.7 W 7 9 4 5 987.7 - 0.8
17/01:30am 5.4 3.6 3.7 89 0.7 W 2 7 1 4 987.8 - 0.8
17/01:00am 5.3 2.6 3.6 89 0.7 SW 7 9 4 5 988.0 - 0.8
17/12:30am 5.4 2.9 3.9 90 0.6 S 6 9 3 5 988.0 - 0.8
17/12:00am 5.5 2.8 3.7 88 0.8 SW 7 13 4 7 987.9 988.2 0.8
 
Date/Time
EDT
Temp
°C
App
Temp
°C
Dew
Point
°C
Rel
Hum
%
Delta-T
°C
Wind Press
QNH
hPa
Press
MSL
hPa
Rain since
9am
mm
Dir  Spd
km/h
Gust
km/h
Spd
kts
Gust
kts
16/11:30pm 5.4 2.9 3.7 89 0.7 WSW 6 9 3 5 987.9 - 0.8
16/11:00pm 5.5 3.0 3.8 89 0.7 WSW 6 9 3 5 987.8 - 0.8
16/10:30pm 5.5 3.0 4.0 90 0.6 SW 6 9 3 5 987.7 - 0.8
16/10:00pm 5.6 3.0 4.1 90 0.6 SSW 7 9 4 5 987.7 - 0.8
16/09:30pm 5.6 2.9 3.9 89 0.7 SSW 7 11 4 6 987.6 - 0.8
16/09:00pm 5.7 3.1 4.0 89 0.7 WSW 7 15 4 8 987.3 987.6 0.6
16/08:30pm 5.8 3.4 4.1 89 0.7 SW 6 13 3 7 987.0 - 0.6
16/08:00pm 5.8 2.4 4.0 88 0.8 SSW 11 19 6 10 986.8 - 0.6
16/07:30pm 5.9 2.5 3.9 87 0.8 WSW 11 20 6 11 986.6 - 0.6
16/07:00pm 6.0 2.9 3.8 86 0.9 WSW 9 15 5 8 986.3 - 0.6
16/06:30pm 6.4 2.6 3.9 84 1.1 WSW 13 22 7 12 986.0 - 0.6
16/06:00pm 6.3 1.3 3.5 82 1.2 SW 19 26 10 14 985.7 986.0 0.6
16/05:30pm 6.3 2.0 3.5 82 1.2 SSW 15 32 8 17 985.5 - 0.6
16/05:00pm 6.4 2.2 3.6 82 1.2 WSW 15 28 8 15 985.2 - 0.6
16/04:30pm 6.6 1.4 3.6 81 1.3 WSW 20 28 11 15 984.9 - 0.6
16/04:00pm 6.7 2.4 3.5 80 1.4 S 15 26 8 14 984.2 - 0.6
16/03:30pm 7.1 3.3 3.9 80 1.4 SSW 13 24 7 13 983.7 - 0.6
16/03:00pm 7.0 1.4 3.4 78 1.5 S 22 35 12 19 983.2 983.5 0.6
16/02:30pm 7.7 3.6 4.3 79 1.5 SSW 15 24 8 13 982.8 - 0.6
16/02:00pm 7.7 2.9 4.8 82 1.3 SW 19 37 10 20 982.2 - 0.6
16/01:30pm 6.9 2.8 4.4 84 1.1 SSW 15 30 8 16 981.9 - 0.6

Other Formats:

Comma delimited format used in spreadsheet applications
http://www.bom.gov.au/fwo/IDT60801/IDT60801.94998.axf

JavaScript Object Notation format (JSON) in row-major order
http://www.bom.gov.au/fwo/IDT60801/IDT60801.94998.json